Time;durP1;ratioP1;P1;durP2;ratioP2;P2;SDS_P1;SDS_P2;PMS_P1;PMS_P2;Temp;Humidity;BMP_temperature;BMP_pressure;BME280_temperature;BME280_humidity;BME280_pressure;Samples;Min_cycle;Max_cycle;Signal;HPM_P1;HPM_P2
2023/03/28 00:01:01;;;;;;;18.42;4.38;;;;;;;4.43;100.00;102185.06;5062571;28;20044;-72
2023/03/28 00:03:28;;;;;;;18.25;4.00;;;;;;;4.34;100.00;102193.28;5064666;28;20080;-74
2023/03/28 00:05:59;;;;;;;12.50;3.30;;;;;;;4.33;100.00;102188.94;5065839;28;20084;-73
2023/03/28 00:08:30;;;;;;;12.73;3.65;;;;;;;4.32;100.00;102195.53;5067374;28;20079;-74
2023/03/28 00:11:02;;;;;;;12.55;2.70;;;;;;;4.27;100.00;102200.34;5059393;28;20048;-75
2023/03/28 00:13:29;;;;;;;16.25;3.70;;;;;;;4.26;100.00;102196.78;5064534;28;20592;-73
2023/03/28 00:16:02;;;;;;;16.40;4.18;;;;;;;4.25;100.00;102199.88;5066497;28;20135;-75
2023/03/28 00:18:29;;;;;;;13.95;3.70;;;;;;;4.32;100.00;102206.47;5059168;28;20056;-72
2023/03/28 00:20:56;;;;;;;16.45;3.72;;;;;;;4.34;100.00;102206.16;5066489;28;20076;-71
2023/03/28 00:23:23;;;;;;;12.68;3.08;;;;;;;4.15;100.00;102194.69;5065405;28;20740;-73
2023/03/28 00:25:50;;;;;;;12.57;3.20;;;;;;;4.19;100.00;102193.72;5063238;28;20102;-73
2023/03/28 00:28:16;;;;;;;19.67;3.80;;;;;;;4.19;100.00;102206.63;5064499;28;20048;-72
2023/03/28 00:30:43;;;;;;;20.33;3.55;;;;;;;4.16;100.00;102210.00;5064591;28;20044;-71
2023/03/28 00:33:10;;;;;;;13.88;2.92;;;;;;;4.13;100.00;102210.63;5060179;28;20045;-72
2023/03/28 00:35:36;;;;;;;12.27;2.92;;;;;;;4.17;100.00;102203.38;5065184;28;20054;-75
2023/03/28 00:38:03;;;;;;;18.58;2.75;;;;;;;4.08;100.00;102208.06;5064262;28;20048;-72
2023/03/28 00:40:35;;;;;;;14.57;3.10;;;;;;;4.11;100.00;102210.94;5068707;28;20448;-75
2023/03/28 00:43:02;;;;;;;13.75;2.72;;;;;;;4.09;100.00;102204.19;5064582;28;20063;-75
2023/03/28 00:45:29;;;;;;;10.48;2.65;;;;;;;4.09;100.00;102210.44;5066627;28;20052;-75
2023/03/28 00:48:00;;;;;;;18.35;3.45;;;;;;;4.09;100.00;102210.44;5065379;28;20041;-75
2023/03/28 00:50:35;;;;;;;12.40;2.92;;;;;;;4.10;100.00;102212.09;5066202;28;20044;-72
2023/03/28 00:53:08;;;;;;;14.50;2.70;;;;;;;4.07;100.00;102206.41;5064514;28;20683;-73
2023/03/28 00:55:49;;;;;;;10.75;2.80;;;;;;;4.03;100.00;102199.97;5062327;28;20295;-74
2023/03/28 00:58:23;;;;;;;14.98;3.58;;;;;;;3.98;100.00;102203.66;5060046;28;20053;-74
2023/03/28 01:00:53;;;;;;;15.32;2.83;;;;;;;3.98;100.00;102209.13;5062151;28;20048;-74
2023/03/28 01:03:26;;;;;;;15.07;3.25;;;;;;;3.94;100.00;102216.38;5062768;28;20045;-73
2023/03/28 01:05:54;;;;;;;10.98;2.50;;;;;;;3.95;100.00;102207.03;5065349;28;20102;-72
2023/03/28 01:08:24;;;;;;;16.00;3.08;;;;;;;4.00;100.00;102206.06;5066027;28;20414;-73
2023/03/28 01:10:50;;;;;;;11.18;3.13;;;;;;;4.01;100.00;102205.75;5065508;28;20044;-73
2023/03/28 01:13:21;;;;;;;14.05;3.08;;;;;;;3.98;100.00;102198.16;5044349;28;20059;-72
2023/03/28 01:15:49;;;;;;;12.95;2.80;;;;;;;3.95;100.00;102198.81;5065889;28;20131;-73
2023/03/28 01:18:17;;;;;;;13.68;3.25;;;;;;;3.87;100.00;102207.81;5065181;28;20130;-74
2023/03/28 01:21:09;;;;;;;10.90;2.83;;;;;;;3.75;100.00;102204.06;5047861;28;20044;-74
2023/03/28 01:23:54;;;;;;;14.27;2.60;;;;;;;3.56;100.00;102212.50;5062102;28;20040;-74
2023/03/28 01:26:39;;;;;;;13.73;2.65;;;;;;;3.53;100.00;102209.56;5050766;28;20049;-73
2023/03/28 01:29:31;;;;;;;11.77;2.67;;;;;;;3.46;100.00;102212.75;5064782;28;20057;-73
2023/03/28 01:32:16;;;;;;;11.85;2.60;;;;;;;3.39;100.00;102217.88;5025067;28;20849;-73
2023/03/28 01:34:55;;;;;;;14.52;2.67;;;;;;;3.32;100.00;102212.03;5046504;28;20052;-74
2023/03/28 01:37:35;;;;;;;10.55;2.90;;;;;;;3.24;100.00;102210.03;5064194;28;20044;-73
2023/03/28 01:40:24;;;;;;;11.85;2.85;;;;;;;3.20;100.00;102214.53;5062953;28;20518;-73
2023/03/28 01:43:08;;;;;;;12.88;2.90;;;;;;;3.17;100.00;102217.88;5050766;28;20623;-73
2023/03/28 01:46:04;;;;;;;11.18;2.38;;;;;;;3.12;100.00;102220.75;5068501;28;20131;-74
2023/03/28 01:48:54;;;;;;;10.80;2.85;;;;;;;3.07;100.00;102209.13;5068528;28;20891;-73
2023/03/28 01:51:42;;;;;;;7.00;2.35;;;;;;;3.04;100.00;102213.31;5065904;28;20062;-73
2023/03/28 01:54:30;;;;;;;17.83;3.38;;;;;;;3.02;100.00;102215.53;5064873;28;20060;-73
2023/03/28 01:56:56;;;;;;;13.85;3.30;;;;;;;2.99;100.00;102207.13;5074169;28;20045;-74
2023/03/28 01:59:38;;;;;;;11.35;2.50;;;;;;;2.99;100.00;102210.69;5050034;28;20052;-74
2023/03/28 02:02:20;;;;;;;23.00;3.35;;;;;;;3.04;100.00;102207.84;5067212;28;20541;-72
2023/03/28 02:04:52;;;;;;;9.52;2.60;;;;;;;3.00;100.00;102209.56;5067214;28;20044;-72
2023/03/28 02:07:24;;;;;;;11.63;2.67;;;;;;;2.98;100.00;102200.88;5069178;28;20687;-73
2023/03/28 02:09:53;;;;;;;18.48;3.60;;;;;;;3.00;100.00;102204.09;5068238;28;20734;-74
2023/03/28 02:12:26;;;;;;;13.88;3.25;;;;;;;2.99;100.00;102202.47;5067247;28;20578;-71
2023/03/28 02:14:56;;;;;;;9.60;3.17;;;;;;;2.94;100.00;102197.16;5067850;28;20771;-73
2023/03/28 02:17:27;;;;;;;12.60;3.35;;;;;;;2.95;100.00;102204.22;5067792;28;20055;-72
2023/03/28 02:20:10;;;;;;;11.73;3.72;;;;;;;2.97;100.00;102201.19;5072505;28;20044;-73
2023/03/28 02:22:52;;;;;;;12.45;3.88;;;;;;;2.93;100.00;102198.25;5066412;28;20095;-73
2023/03/28 02:25:22;;;;;;;15.43;3.78;;;;;;;2.96;100.00;102203.09;5065225;28;20059;-73
2023/03/28 02:27:54;;;;;;;11.68;3.53;;;;;;;2.98;100.00;102205.53;5074218;28;20045;-72
2023/03/28 02:30:27;;;;;;;16.58;3.65;;;;;;;2.89;100.00;102202.72;5069600;28;20048;-73
2023/03/28 02:33:01;;;;;;;19.92;3.72;;;;;;;2.87;100.00;102195.97;5070634;28;20048;-73
2023/03/28 02:35:45;;;;;;;13.48;3.60;;;;;;;2.77;100.00;102191.56;5053248;28;20705;-74
2023/03/28 02:38:35;;;;;;;14.32;3.75;;;;;;;2.76;100.00;102192.63;5068959;28;20044;-72
2023/03/28 02:41:07;;;;;;;11.82;3.40;;;;;;;2.79;100.00;102194.75;5065846;28;20055;-74
2023/03/28 02:43:51;;;;;;;13.48;4.00;;;;;;;2.79;100.00;102183.81;5065492;28;20056;-75
2023/03/28 02:46:32;;;;;;;14.40;4.20;;;;;;;2.78;100.00;102186.88;5070050;28;20063;-74
2023/03/28 02:49:08;;;;;;;15.65;4.38;;;;;;;2.74;100.00;102192.16;5051369;28;20498;-72
2023/03/28 02:51:40;;;;;;;14.48;3.75;;;;;;;2.68;100.00;102183.28;5068674;28;20056;-72
2023/03/28 02:54:24;;;;;;;23.73;4.75;;;;;;;2.64;100.00;102187.72;5062753;28;20491;-75
2023/03/28 02:57:09;;;;;;;19.38;5.35;;;;;;;2.58;100.00;102190.88;5065626;28;20085;-72
2023/03/28 02:59:41;;;;;;;23.80;4.53;;;;;;;2.57;100.00;102192.00;5057492;28;20587;-72
2023/03/28 03:02:07;;;;;;;18.88;4.28;;;;;;;2.54;100.00;102193.41;5060801;28;20394;-75
2023/03/28 03:04:34;;;;;;;18.85;4.60;;;;;;;2.55;100.00;102188.78;5067428;28;20102;-74
2023/03/28 03:07:01;;;;;;;14.55;4.20;;;;;;;2.49;100.00;102190.81;5057144;28;20435;-72
2023/03/28 03:09:27;;;;;;;23.10;5.00;;;;;;;2.51;100.00;102191.31;5064375;28;20098;-74
2023/03/28 03:11:54;;;;;;;13.88;4.53;;;;;;;2.50;100.00;102191.63;5060084;28;20055;-74
2023/03/28 03:14:21;;;;;;;16.25;5.55;;;;;;;2.46;100.00;102191.44;5062453;28;20053;-74
2023/03/28 03:16:50;;;;;;;20.85;4.13;;;;;;;2.46;100.00;102185.16;5068026;28;20051;-75
2023/03/28 03:19:18;;;;;;;15.40;4.47;;;;;;;2.41;100.00;102180.63;5040987;28;20079;-74
2023/03/28 03:21:45;;;;;;;19.77;5.32;;;;;;;2.48;100.00;102185.66;5059121;28;20071;-72
2023/03/28 03:24:13;;;;;;;23.58;6.32;;;;;;;2.53;100.00;102185.53;5067080;28;20047;-74
2023/03/28 03:26:42;;;;;;;20.90;7.05;;;;;;;2.58;100.00;102182.69;5044073;28;20191;-75
2023/03/28 03:29:09;;;;;;;18.42;5.95;;;;;;;2.62;100.00;102189.16;5061050;28;20162;-75
2023/03/28 03:31:35;;;;;;;24.30;6.55;;;;;;;2.69;100.00;102189.53;5061178;28;20045;-72
2023/03/28 03:34:02;;;;;;;22.23;6.15;;;;;;;2.74;100.00;102186.69;5044185;28;20080;-74
2023/03/28 03:36:32;;;;;;;19.20;6.38;;;;;;;2.70;100.00;102183.75;5068095;28;20074;-72
2023/03/28 03:38:58;;;;;;;21.42;5.85;;;;;;;2.65;100.00;102183.06;5060459;28;20048;-71
2023/03/28 03:41:25;;;;;;;24.45;6.85;;;;;;;2.61;100.00;102190.28;5058237;28;20079;-72
2023/03/28 03:43:52;;;;;;;19.70;6.38;;;;;;;2.51;100.00;102190.50;5060539;28;20051;-71
2023/03/28 03:46:19;;;;;;;26.98;6.78;;;;;;;2.46;100.00;102182.41;5048003;28;20478;-73
2023/03/28 03:48:45;;;;;;;20.92;6.03;;;;;;;2.42;100.00;102203.28;5060761;28;20544;-73
2023/03/28 03:51:15;;;;;;;22.90;6.32;;;;;;;2.40;100.00;102194.59;5044022;28;20456;-73
2023/03/28 03:53:42;;;;;;;16.02;5.70;;;;;;;2.37;100.00;102197.94;5051615;28;20165;-73
2023/03/28 03:56:09;;;;;;;22.27;5.93;;;;;;;2.26;100.00;102199.28;5061050;28;20061;-73
2023/03/28 03:58:38;;;;;;;23.33;6.32;;;;;;;2.24;100.00;102199.59;5042083;28;20056;-73
2023/03/28 04:01:04;;;;;;;16.15;6.13;;;;;;;2.21;100.00;102207.56;5066562;28;20525;-73
2023/03/28 04:03:32;;;;;;;18.13;6.03;;;;;;;2.21;100.00;102211.09;5062590;28;20067;-72
2023/03/28 04:06:00;;;;;;;22.45;6.15;;;;;;;2.16;100.00;102208.47;5063432;28;20056;-73
2023/03/28 04:08:27;;;;;;;22.40;6.13;;;;;;;2.06;100.00;102203.22;5061264;28;20045;-73
2023/03/28 04:10:54;;;;;;;19.67;5.97;;;;;;;2.11;100.00;102210.50;5063184;28;20054;-74
2023/03/28 04:13:20;;;;;;;20.58;5.88;;;;;;;2.10;100.00;102214.34;5066074;28;20054;-73
2023/03/28 04:15:47;;;;;;;22.98;5.95;;;;;;;2.12;100.00;102225.75;5067317;28;20049;-75
2023/03/28 04:18:19;;;;;;;15.55;4.88;;;;;;;2.07;100.00;102223.97;5063257;28;20060;-73
2023/03/28 04:20:52;;;;;;;14.15;5.03;;;;;;;2.06;100.00;102227.78;5065470;28;20055;-72
2023/03/28 04:23:19;;;;;;;19.50;6.85;;;;;;;2.11;100.00;102224.16;5064565;28;20506;-74
2023/03/28 04:25:48;;;;;;;16.90;5.80;;;;;;;1.99;100.00;102215.69;5065605;28;20049;-73
2023/03/28 04:28:15;;;;;;;18.50;6.65;;;;;;;2.08;100.00;102227.50;5069060;28;20051;-75
2023/03/28 04:30:42;;;;;;;14.13;4.93;;;;;;;2.03;100.00;102233.06;5066750;28;20049;-75
2023/03/28 04:33:09;;;;;;;20.00;6.55;;;;;;;2.08;100.00;102236.50;5066191;28;20055;-74
2023/03/28 04:35:36;;;;;;;22.15;7.10;;;;;;;2.09;100.00;102226.38;5070163;28;20052;-74
2023/03/28 04:38:02;;;;;;;26.13;7.38;;;;;;;2.08;100.00;102231.03;5067085;28;20055;-74
2023/03/28 04:40:29;;;;;;;25.00;7.30;;;;;;;2.12;100.00;102231.22;5067261;28;20119;-74
2023/03/28 04:42:55;;;;;;;28.02;8.20;;;;;;;2.19;100.00;102226.16;5066047;28;20051;-75
2023/03/28 04:45:25;;;;;;;28.90;7.97;;;;;;;2.14;100.00;102223.56;5067162;28;20052;-74
2023/03/28 04:47:52;;;;;;;22.98;8.20;;;;;;;2.21;100.00;102232.13;5056940;28;20040;-73
2023/03/28 04:50:19;;;;;;;27.23;7.18;;;;;;;2.16;100.00;102240.44;5061173;28;20052;-75
2023/03/28 04:52:45;;;;;;;21.75;7.55;;;;;;;2.16;100.00;102237.72;5059482;28;20684;-72
2023/03/28 04:55:12;;;;;;;19.48;7.30;;;;;;;2.13;100.00;102241.84;5060536;28;20149;-75
2023/03/28 04:57:39;;;;;;;18.83;6.88;;;;;;;2.18;100.00;102235.47;5060220;28;20055;-73
2023/03/28 05:00:08;;;;;;;24.42;8.30;;;;;;;2.22;100.00;102239.22;5060525;28;20045;-72
2023/03/28 05:02:35;;;;;;;24.52;8.35;;;;;;;2.20;100.00;102246.91;5059586;28;20530;-72
2023/03/28 05:05:02;;;;;;;20.92;8.30;;;;;;;2.12;100.00;102245.69;5061252;28;20083;-71
2023/03/28 05:07:29;;;;;;;25.10;8.40;;;;;;;2.16;100.00;102243.19;5056730;28;20056;-72
2023/03/28 05:09:55;;;;;;;28.73;8.43;;;;;;;2.20;100.00;102255.09;5063247;28;20052;-72
2023/03/28 05:12:21;;;;;;;27.55;9.02;;;;;;;2.23;100.00;102255.28;5064515;28;20048;-72
2023/03/28 05:14:48;;;;;;;25.10;8.88;;;;;;;2.26;100.00;102259.38;5061423;28;20052;-74
2023/03/28 05:17:14;;;;;;;31.85;9.35;;;;;;;2.22;100.00;102252.88;5062156;28;20048;-75
2023/03/28 05:19:41;;;;;;;27.65;9.40;;;;;;;2.26;100.00;102264.81;5066517;28;20058;-74
2023/03/28 05:22:07;;;;;;;30.25;10.98;;;;;;;2.26;100.00;102259.38;5065489;28;20063;-74
2023/03/28 05:24:37;;;;;;;29.15;10.55;;;;;;;2.32;100.00;102266.31;5065132;28;20071;-73
2023/03/28 05:27:04;;;;;;;28.02;10.63;;;;;;;2.35;100.00;102260.25;5046538;28;20067;-73
2023/03/28 05:29:30;;;;;;;30.85;11.52;;;;;;;2.38;100.00;102259.63;5064561;28;20056;-74
2023/03/28 05:31:56;;;;;;;36.30;11.20;;;;;;;2.43;100.00;102262.28;5047189;28;20045;-71
2023/03/28 05:34:23;;;;;;;30.27;10.90;;;;;;;2.42;100.00;102253.25;5066203;28;20087;-73
2023/03/28 05:36:50;;;;;;;20.98;10.00;;;;;;;2.41;100.00;102264.50;5064298;28;20056;-75
2023/03/28 05:39:17;;;;;;;27.98;10.43;;;;;;;2.38;100.00;102270.56;5065413;28;20044;-73
2023/03/28 05:41:43;;;;;;;29.38;10.18;;;;;;;2.28;100.00;102263.41;5065796;28;20091;-74
2023/03/28 05:44:10;;;;;;;23.40;9.50;;;;;;;2.28;100.00;102270.78;5063946;28;20135;-73
2023/03/28 05:46:36;;;;;;;26.35;9.75;;;;;;;2.28;100.00;102268.03;5067604;28;20559;-72
2023/03/28 05:49:03;;;;;;;28.05;10.23;;;;;;;2.29;100.00;102273.19;5064326;28;20081;-75
2023/03/28 05:51:29;;;;;;;24.08;9.63;;;;;;;2.29;100.00;102261.47;5065294;28;20049;-73
2023/03/28 05:53:56;;;;;;;30.35;10.18;;;;;;;2.30;100.00;102280.28;5048864;28;20495;-74
2023/03/28 05:56:22;;;;;;;22.63;9.70;;;;;;;2.28;100.00;102271.59;5071743;28;20052;-73
2023/03/28 05:58:49;;;;;;;29.13;10.18;;;;;;;2.29;100.00;102273.19;5064318;28;20047;-73
2023/03/28 06:01:22;;;;;;;23.90;10.43;;;;;;;2.34;100.00;102269.56;5048685;28;20055;-74
2023/03/28 06:03:49;;;;;;;26.75;10.73;;;;;;;2.35;100.00;102274.72;5066698;28;20049;-73
2023/03/28 06:06:16;;;;;;;25.75;10.20;;;;;;;2.41;100.00;102269.97;5061855;28;20411;-73
2023/03/28 06:08:43;;;;;;;26.05;9.98;;;;;;;2.45;100.00;102284.63;5066277;28;20131;-73
2023/03/28 06:11:10;;;;;;;30.58;10.13;;;;;;;2.48;100.00;102275.81;5063867;28;20059;-72
2023/03/28 06:13:36;;;;;;;27.10;9.07;;;;;;;2.48;100.00;102278.56;5071693;28;20058;-74
2023/03/28 06:16:03;;;;;;;24.80;10.23;;;;;;;2.50;100.00;102284.53;5066120;28;20084;-74
2023/03/28 06:18:30;;;;;;;31.98;11.80;;;;;;;2.57;100.00;102282.97;5067147;28;20044;-76
2023/03/28 06:20:56;;;;;;;31.52;10.88;;;;;;;2.63;100.00;102283.69;5065970;28;20075;-75
2023/03/28 06:23:24;;;;;;;27.50;11.45;;;;;;;2.70;100.00;102284.88;5065248;28;20063;-74
2023/03/28 06:25:50;;;;;;;26.10;11.40;;;;;;;2.71;100.00;102293.91;5068557;28;20087;-73
2023/03/28 06:28:17;;;;;;;26.08;10.77;;;;;;;2.77;100.00;102292.69;5065504;28;20060;-74
2023/03/28 06:30:47;;;;;;;29.83;11.50;;;;;;;2.86;100.00;102295.50;5047381;28;20067;-74
2023/03/28 06:33:14;;;;;;;25.25;11.35;;;;;;;2.96;100.00;102301.53;5054158;28;20154;-74
2023/03/28 06:35:41;;;;;;;28.67;11.35;;;;;;;2.98;100.00;102299.31;5069081;28;20052;-74
2023/03/28 06:38:07;;;;;;;29.02;10.57;;;;;;;3.01;100.00;102297.88;5066327;28;20087;-71
2023/03/28 06:40:34;;;;;;;31.08;10.05;;;;;;;3.09;100.00;102289.75;5058599;28;20060;-74
2023/03/28 06:43:00;;;;;;;22.33;7.95;;;;;;;3.13;100.00;102296.22;5066142;28;20056;-72
2023/03/28 06:45:27;;;;;;;24.17;8.85;;;;;;;3.20;100.00;102301.28;5065367;28;20080;-74
2023/03/28 06:47:53;;;;;;;27.27;8.05;;;;;;;3.21;100.00;102317.38;5063821;28;20059;-77
2023/03/28 06:50:20;;;;;;;25.88;8.57;;;;;;;3.28;100.00;102306.81;5068970;28;20086;-74
2023/03/28 06:52:46;;;;;;;24.60;9.35;;;;;;;3.38;100.00;102309.31;5065465;28;20054;-73
2023/03/28 06:55:13;;;;;;;16.67;6.20;;;;;;;3.40;100.00;102308.97;5068831;28;20157;-74
2023/03/28 06:57:40;;;;;;;29.67;10.93;;;;;;;3.54;100.00;102315.22;5067646;28;20053;-74
2023/03/28 07:00:07;;;;;;;18.35;7.45;;;;;;;3.55;100.00;102316.81;5068075;28;20052;-75
2023/03/28 07:02:33;;;;;;;30.10;10.60;;;;;;;3.69;100.00;102314.81;5057750;28;20053;-74
2023/03/28 07:05:00;;;;;;;23.85;8.73;;;;;;;3.74;100.00;102317.44;5068515;28;20489;-73
2023/03/28 07:07:27;;;;;;;25.35;9.98;;;;;;;3.83;100.00;102316.34;5070895;28;20445;-75
2023/03/28 07:09:53;;;;;;;28.48;10.63;;;;;;;3.93;100.00;102315.28;5071822;28;20048;-72
2023/03/28 07:12:20;;;;;;;34.83;12.90;;;;;;;4.01;100.00;102315.31;5065562;28;20075;-76
2023/03/28 07:14:47;;;;;;;26.30;11.35;;;;;;;4.18;100.00;102312.66;5068905;28;20048;-74
2023/03/28 07:17:13;;;;;;;18.13;7.40;;;;;;;4.21;100.00;102305.72;5052516;28;20052;-74
2023/03/28 07:19:40;;;;;;;16.65;5.03;;;;;;;4.27;100.00;102313.50;5068235;28;20139;-74
2023/03/28 07:22:07;;;;;;;5.93;3.35;;;;;;;4.35;100.00;102307.25;5065026;28;20159;-73
2023/03/28 07:24:33;;;;;;;18.67;6.50;;;;;;;4.39;100.00;102308.22;5060122;28;20427;-75
2023/03/28 07:27:00;;;;;;;6.80;3.20;;;;;;;4.58;100.00;102314.25;5071935;28;20123;-72
2023/03/28 07:29:40;;;;;;;17.42;4.80;;;;;;;4.68;100.00;102313.97;5068717;28;20063;-72
2023/03/28 07:32:07;;;;;;;11.73;3.63;;;;;;;4.68;100.00;102311.22;5065756;28;20517;-73
2023/03/28 07:34:33;;;;;;;12.93;4.95;;;;;;;4.85;100.00;102314.00;5060188;28;20052;-73
2023/03/28 07:37:00;;;;;;;11.55;2.63;;;;;;;4.87;100.00;102324.66;5067328;28;20080;-71
2023/03/28 07:39:27;;;;;;;23.38;8.25;;;;;;;5.03;100.00;102312.88;5057885;28;20049;-70
2023/03/28 07:41:53;;;;;;;17.67;6.78;;;;;;;5.12;100.00;102316.44;5065744;28;20570;-72
2023/03/28 07:44:20;;;;;;;18.65;7.47;;;;;;;5.14;100.00;102316.91;5068013;28;20050;-70
2023/03/28 07:46:46;;;;;;;12.05;4.50;;;;;;;5.21;100.00;102327.41;5048821;28;20063;-72
2023/03/28 07:49:14;;;;;;;23.02;7.32;;;;;;;5.16;100.00;102319.34;5065260;28;20041;-74
2023/03/28 07:51:40;;;;;;;13.48;4.38;;;;;;;5.31;100.00;102321.63;5060802;28;20529;-74
2023/03/28 07:54:16;;;;;;;32.22;7.88;;;;;;;5.50;100.00;102315.78;5062271;28;20623;-74
2023/03/28 07:56:46;;;;;;;25.67;9.15;;;;;;;5.68;100.00;102317.38;5070073;28;20206;-73
2023/03/28 07:59:13;;;;;;;12.25;4.18;;;;;;;5.66;100.00;102320.44;5062140;28;20486;-74
2023/03/28 08:01:42;;;;;;;13.40;3.40;;;;;;;5.80;100.00;102314.78;5063140;28;20064;-75
2023/03/28 08:04:10;;;;;;;24.80;6.60;;;;;;;5.95;100.00;102325.25;5062632;28;20059;-75
2023/03/28 08:06:38;;;;;;;15.05;5.03;;;;;;;6.06;100.00;102327.34;5065130;28;20045;-76
2023/03/28 08:09:13;;;;;;;28.13;8.20;;;;;;;6.24;100.00;102328.88;5061762;28;20498;-74
2023/03/28 08:11:41;;;;;;;8.93;3.40;;;;;;;6.34;100.00;102331.25;5061346;28;20060;-73
2023/03/28 08:14:12;;;;;;;6.32;2.67;;;;;;;6.36;100.00;102326.25;5063709;28;20062;-73
2023/03/28 08:16:39;;;;;;;16.70;2.92;;;;;;;6.40;100.00;102337.38;5044634;28;20485;-74
2023/03/28 08:19:06;;;;;;;14.20;4.15;;;;;;;6.37;100.00;102329.78;5047755;28;20056;-72
2023/03/28 08:21:37;;;;;;;3.85;2.28;;;;;;;6.53;100.00;102337.16;5046854;28;20861;-71
2023/03/28 08:24:06;;;;;;;12.73;3.67;;;;;;;6.65;100.00;102340.00;5065858;28;20067;-74
2023/03/28 08:26:33;;;;;;;10.07;3.83;;;;;;;6.77;100.00;102344.78;5073197;28;20625;-72
2023/03/28 08:28:59;;;;;;;8.95;3.47;;;;;;;6.95;100.00;102340.81;5070981;28;20050;-74
2023/03/28 08:31:27;;;;;;;14.98;4.72;;;;;;;6.79;100.00;102335.06;5055194;28;20049;-74
2023/03/28 08:33:54;;;;;;;17.90;3.05;;;;;;;6.98;100.00;102335.44;5058790;28;20218;-73
2023/03/28 08:36:23;;;;;;;13.20;3.95;;;;;;;7.05;100.00;102345.91;5059396;28;20063;-74
2023/03/28 08:38:52;;;;;;;9.05;3.03;;;;;;;7.20;100.00;102332.38;5059050;28;20620;-74
2023/03/28 08:41:39;;;;;;;18.73;5.32;;;;;;;7.45;100.00;102338.78;5060351;28;20126;-73
2023/03/28 08:44:18;;;;;;;13.57;4.03;;;;;;;7.19;100.00;102351.97;5052877;28;20050;-74
2023/03/28 08:46:51;;;;;;;6.30;2.08;;;;;;;7.27;100.00;102335.41;5064743;28;20103;-75
2023/03/28 08:49:17;;;;;;;18.50;5.18;;;;;;;7.49;100.00;102336.97;5056456;28;20061;-73
2023/03/28 08:52:04;;;;;;;10.02;2.97;;;;;;;7.34;100.00;102337.59;5070745;28;20056;-74
2023/03/28 08:54:41;;;;;;;12.50;3.15;;;;;;;7.35;100.00;102333.69;5065352;28;20102;-73
2023/03/28 08:57:16;;;;;;;9.82;3.58;;;;;;;7.40;100.00;102330.75;5064566;28;20553;-73
2023/03/28 09:00:13;;;;;;;16.95;3.80;;;;;;;7.60;100.00;102336.22;5062188;28;20407;-70
2023/03/28 09:02:41;;;;;;;15.75;4.80;;;;;;;7.85;100.00;102342.63;5060242;28;20539;-72
2023/03/28 09:05:17;;;;;;;21.65;5.53;;;;;;;7.92;100.00;102335.44;5043660;28;20052;-72
2023/03/28 09:08:15;;;;;;;17.70;4.50;;;;;;;8.10;100.00;102338.78;5066845;28;20052;-72
2023/03/28 09:10:54;;;;;;;21.45;5.38;;;;;;;8.24;100.00;102325.53;5056887;28;20049;-72
2023/03/28 09:13:42;;;;;;;23.52;5.03;;;;;;;8.41;100.00;102333.59;5060540;28;20051;-73
2023/03/28 09:16:18;;;;;;;13.73;3.58;;;;;;;8.60;100.00;102322.00;5064876;28;20528;-72
2023/03/28 09:19:15;;;;;;;13.93;3.70;;;;;;;8.74;100.00;102320.47;5061286;28;20494;-72
2023/03/28 09:21:54;;;;;;;9.35;2.83;;;;;;;8.83;100.00;102320.34;5063337;28;20519;-73
2023/03/28 09:25:07;;;;;;;6.32;2.00;;;;;;;8.87;100.00;102326.81;5061506;28;20048;-71
2023/03/28 09:27:48;;;;;;;5.38;2.20;;;;;;;8.71;100.00;102328.66;5046938;28;20055;-72
2023/03/28 09:30:30;;;;;;;19.80;4.45;;;;;;;8.67;100.00;102324.97;5040115;28;20796;-74
2023/03/28 09:32:59;;;;;;;6.70;1.92;;;;;;;8.79;100.00;102322.19;5061346;28;20054;-72
2023/03/28 09:35:29;;;;;;;9.88;2.15;;;;;;;8.31;100.00;102328.53;5061570;28;20048;-72
2023/03/28 09:38:01;;;;;;;3.30;1.45;;;;;;;8.48;100.00;102325.56;5056883;28;20047;-72
2023/03/28 09:40:33;;;;;;;8.93;2.25;;;;;;;8.37;100.00;102310.59;5065517;28;20080;-74
2023/03/28 09:43:18;;;;;;;12.18;3.55;;;;;;;8.13;100.00;102321.56;5054290;28;20167;-74
2023/03/28 09:45:44;;;;;;;14.35;3.63;;;;;;;8.15;100.00;102324.78;5063468;28;20057;-75
2023/03/28 09:48:18;;;;;;;4.13;1.70;;;;;;;8.24;100.00;102314.50;5047195;28;20056;-74
2023/03/28 09:50:45;;;;;;;21.02;4.32;;;;;;;8.60;100.00;102310.97;5047754;28;20045;-72
2023/03/28 09:53:20;;;;;;;2.22;0.82;;;;;;;8.52;100.00;102311.88;5063248;28;20048;-71
2023/03/28 09:55:47;;;;;;;3.83;1.70;;;;;;;8.56;100.00;102307.25;5061951;28;20139;-72
2023/03/28 09:58:27;;;;;;;6.47;2.72;;;;;;;8.49;100.00;102301.50;5065187;28;20625;-73
2023/03/28 10:00:54;;;;;;;5.95;1.73;;;;;;;8.47;100.00;102310.13;5066636;28;20227;-73
2023/03/28 10:03:27;;;;;;;8.43;2.85;;;;;;;8.76;100.00;102298.88;5068824;28;20453;-75
2023/03/28 10:05:59;;;;;;;7.80;1.85;;;;;;;8.72;100.00;102313.69;5067040;28;20098;-72
2023/03/28 10:08:31;;;;;;;7.47;2.17;;;;;;;8.87;100.00;102301.97;5068494;28;20055;-73
2023/03/28 10:11:03;;;;;;;8.00;1.55;;;;;;;8.80;100.00;102298.97;5062304;28;20072;-73
2023/03/28 10:13:39;;;;;;;8.63;2.17;;;;;;;8.97;100.00;102298.69;5054735;28;20070;-71
2023/03/28 10:16:07;;;;;;;4.65;1.10;;;;;;;9.09;100.00;102304.22;5061330;28;20053;-73
2023/03/28 10:18:34;;;;;;;4.78;1.15;;;;;;;9.11;98.65;102286.13;5065997;28;20417;-73
2023/03/28 10:21:09;;;;;;;11.68;1.83;;;;;;;8.81;78.84;102301.38;5062291;28;20048;-74
2023/03/28 10:23:39;;;;;;;9.90;2.70;;;;;;;9.22;89.36;102290.00;5065528;28;20483;-73
2023/03/28 10:26:07;;;;;;;2.35;1.13;;;;;;;9.03;67.56;102289.03;5068159;28;20048;-73
2023/03/28 10:28:35;;;;;;;3.03;1.23;;;;;;;9.15;84.43;102289.78;5065257;28;20052;-76
2023/03/28 10:31:03;;;;;;;2.80;0.95;;;;;;;9.18;88.04;102280.81;5065484;28;20062;-73
2023/03/28 10:33:49;;;;;;;11.27;1.80;;;;;;;9.11;88.96;102282.59;5066993;28;20056;-73
2023/03/28 10:36:36;;;;;;;2.80;1.17;;;;;;;9.10;85.69;102283.72;5057716;28;20055;-73
2023/03/28 10:39:20;;;;;;;3.30;1.27;;;;;;;9.10;93.08;102272.66;5065875;28;20120;-78
2023/03/28 10:41:55;;;;;;;4.85;1.63;;;;;;;9.27;96.49;102278.72;5066093;28;20055;-73
2023/03/28 10:44:31;;;;;;;2.25;0.55;;;;;;;9.27;92.89;102280.66;5067522;28;20112;-72
2023/03/28 10:47:13;;;;;;;5.78;2.08;;;;;;;9.23;92.10;102275.06;5066747;28;20135;-73
2023/03/28 10:49:44;;;;;;;6.15;2.00;;;;;;;9.12;87.15;102273.94;5047095;28;20534;-73
2023/03/28 10:52:22;;;;;;;8.50;2.17;;;;;;;9.35;91.47;102277.75;5066771;28;20056;-71
2023/03/28 10:54:54;;;;;;;6.53;1.58;;;;;;;9.30;87.32;102266.97;5072166;28;20049;-73
2023/03/28 10:57:45;;;;;;;5.03;1.95;;;;;;;9.57;89.50;102265.34;5059795;28;20052;-70
2023/03/28 11:00:49;;;;;;;4.57;1.85;;;;;;;9.64;87.28;102258.06;5063263;28;20055;-72
2023/03/28 11:03:37;;;;;;;8.02;1.83;;;;;;;9.73;83.12;102258.72;5065985;28;20052;-73
2023/03/28 11:06:31;;;;;;;7.20;2.15;;;;;;;9.78;79.66;102252.91;5064269;28;20052;-72
2023/03/28 11:09:00;;;;;;;2.20;1.13;;;;;;;10.01;80.40;102250.31;5063075;28;20057;-73
2023/03/28 11:11:44;;;;;;;8.05;1.73;;;;;;;10.03;73.67;102237.75;5063828;28;20049;-73
2023/03/28 11:14:21;;;;;;;5.07;1.83;;;;;;;9.79;68.01;102229.63;5061583;28;20563;-71
2023/03/28 11:16:51;;;;;;;2.10;1.27;;;;;;;9.99;74.54;102231.31;5065409;28;20055;-72
2023/03/28 11:19:50;;;;;;;6.68;2.40;;;;;;;10.30;75.91;102223.03;5063825;28;20047;-73
2023/03/28 11:22:37;;;;;;;3.40;1.38;;;;;;;10.29;73.94;102226.97;5029384;28;20135;-75
2023/03/28 11:25:22;;;;;;;2.67;1.30;;;;;;;10.25;74.51;102217.78;5060480;28;20053;-73
2023/03/28 11:28:31;;;;;;;6.40;2.30;;;;;;;10.30;76.02;102223.03;5071276;28;20045;-74
2023/03/28 11:30:59;;;;;;;10.10;2.55;;;;;;;10.27;77.15;102220.19;5063187;28;20303;-75
2023/03/28 11:33:31;;;;;;;10.98;1.83;;;;;;;10.16;79.22;102208.09;5064734;28;20594;-74
2023/03/28 11:36:04;;;;;;;5.55;1.40;;;;;;;10.36;77.58;102199.47;5064227;28;20048;-72
2023/03/28 11:39:00;;;;;;;10.18;2.55;;;;;;;10.96;85.94;102194.44;5060849;28;20044;-75
2023/03/28 11:41:32;;;;;;;11.05;2.75;;;;;;;11.18;74.90;102188.16;5058799;28;20063;-71